Time;durP1;ratioP1;P1;durP2;ratioP2;P2;SDS_P1;SDS_P2;PMS_P1;PMS_P2;Temp;Humidity;BMP_temperature;BMP_pressure;BME280_temperature;BME280_humidity;BME280_pressure;Samples;Min_cycle;Max_cycle;Signal;HPM_P1;HPM_P2
2021/06/14 00:01:52;;;;;;;15.18;12.48;;;21.30;99.90;;;;;;5086038;28;20059;-69
2021/06/14 00:04:56;;;;;;;15.07;11.80;;;21.20;99.90;;;;;;5079612;28;20509;-69
2021/06/14 00:08:02;;;;;;;16.13;11.35;;;21.30;99.90;;;;;;5069274;28;20051;-69
2021/06/14 00:11:08;;;;;;;13.18;11.77;;;21.30;99.90;;;;;;5088789;28;20047;-69
2021/06/14 00:14:12;;;;;;;14.90;11.25;;;21.20;99.90;;;;;;5078484;28;20040;-69
2021/06/14 00:17:17;;;;;;;12.18;10.50;;;21.20;99.90;;;;;;5086081;28;20043;-69
2021/06/14 00:20:22;;;;;;;14.93;12.13;;;21.20;99.90;;;;;;5069135;28;20411;-69
2021/06/14 00:23:29;;;;;;;12.63;11.18;;;21.10;99.90;;;;;;5080272;28;20395;-69
2021/06/14 00:26:33;;;;;;;18.42;11.65;;;21.10;99.90;;;;;;5086466;28;20063;-69
2021/06/14 00:29:38;;;;;;;13.60;11.43;;;21.00;99.90;;;;;;5089816;28;20387;-69
2021/06/14 00:32:42;;;;;;;19.05;11.85;;;21.00;99.90;;;;;;5086075;28;20040;-69
2021/06/14 00:35:48;;;;;;;17.33;12.43;;;21.00;99.90;;;;;;5083022;28;20035;-69
2021/06/14 00:38:54;;;;;;;15.80;11.80;;;20.90;99.90;;;;;;5093251;28;20047;-69
2021/06/14 00:41:58;;;;;;;13.02;11.73;;;20.90;99.90;;;;;;5076992;28;20055;-69
2021/06/14 00:45:08;;;;;;;17.15;12.55;;;20.90;99.90;;;;;;5075028;28;20118;-69
2021/06/14 00:48:13;;;;;;;14.63;12.07;;;20.90;99.90;;;;;;5092242;28;20039;-69
2021/06/14 00:51:18;;;;;;;14.93;12.45;;;20.90;99.90;;;;;;5074434;28;20036;-69
2021/06/14 00:54:22;;;;;;;12.73;11.43;;;20.90;99.90;;;;;;5075262;28;20043;-69
2021/06/14 00:57:26;;;;;;;13.35;11.38;;;20.80;99.90;;;;;;5080209;28;20043;-69
2021/06/14 01:00:32;;;;;;;13.52;12.13;;;20.70;99.90;;;;;;5073093;28;20056;-69
2021/06/14 01:03:37;;;;;;;16.60;12.63;;;20.70;99.90;;;;;;5078427;28;20067;-69
2021/06/14 01:06:41;;;;;;;15.30;12.65;;;20.50;99.90;;;;;;5090881;28;20043;-69
2021/06/14 01:09:47;;;;;;;16.60;14.80;;;20.40;99.90;;;;;;5071926;28;20056;-69
2021/06/14 01:13:08;;;;;;;18.77;15.55;;;20.40;99.90;;;;;;5094790;28;20390;-69
2021/06/14 01:16:22;;;;;;;16.27;13.73;;;20.20;99.90;;;;;;5089378;28;20047;-69
2021/06/14 01:19:42;;;;;;;18.30;14.60;;;20.10;99.90;;;;;;5088707;28;20509;-69
2021/06/14 01:22:52;;;;;;;16.20;14.50;;;20.10;99.90;;;;;;5083460;28;20129;-69
2021/06/14 01:26:10;;;;;;;16.73;14.57;;;20.10;99.90;;;;;;5090204;28;20213;-69
2021/06/14 01:29:15;;;;;;;16.80;14.32;;;20.00;99.90;;;;;;5089220;28;20413;-69
2021/06/14 01:32:21;;;;;;;16.58;14.75;;;20.00;99.90;;;;;;5084954;28;20398;-69
2021/06/14 01:35:35;;;;;;;16.83;14.50;;;20.00;99.90;;;;;;5090692;28;20395;-69
2021/06/14 01:38:44;;;;;;;15.65;13.90;;;20.00;99.90;;;;;;5088260;28;20051;-69
2021/06/14 01:41:54;;;;;;;14.95;13.38;;;20.00;99.90;;;;;;5094904;28;20058;-69
2021/06/14 01:45:00;;;;;;;16.85;13.77;;;20.10;99.90;;;;;;5087670;28;20055;-69
2021/06/14 01:48:06;;;;;;;14.30;12.52;;;20.10;99.90;;;;;;5090865;28;20047;-69
2021/06/14 01:51:14;;;;;;;16.00;12.73;;;20.00;99.90;;;;;;5091951;28;20059;-69
2021/06/14 01:54:20;;;;;;;15.20;13.50;;;19.90;99.90;;;;;;5102145;28;20039;-69
2021/06/14 01:57:53;;;;;;;17.20;13.55;;;19.90;99.90;;;;;;5090634;28;20039;-69
2021/06/14 02:01:16;;;;;;;17.55;13.90;;;19.90;99.90;;;;;;5090056;28;20062;-69
2021/06/14 02:04:32;;;;;;;15.68;13.90;;;19.90;99.90;;;;;;5090533;28;20383;-69
2021/06/14 02:07:51;;;;;;;15.60;13.75;;;19.90;99.90;;;;;;5095437;28;20063;-69
2021/06/14 02:10:57;;;;;;;15.95;13.00;;;19.90;99.90;;;;;;5085997;28;20043;-69
2021/06/14 02:14:03;;;;;;;16.65;14.13;;;19.80;99.90;;;;;;5090415;28;20423;-69
2021/06/14 02:17:30;;;;;;;23.60;14.40;;;19.80;99.90;;;;;;5092070;28;20043;-70
2021/06/14 02:20:34;;;;;;;21.25;13.32;;;19.80;99.90;;;;;;5069195;28;20043;-69
2021/06/14 02:23:39;;;;;;;18.15;14.45;;;19.70;99.90;;;;;;5085337;28;20067;-69
2021/06/14 02:26:45;;;;;;;18.42;13.90;;;19.70;99.90;;;;;;5090139;28;20055;-69
2021/06/14 02:29:50;;;;;;;16.92;14.15;;;19.60;99.90;;;;;;5088285;28;20067;-69
2021/06/14 02:32:55;;;;;;;16.25;13.48;;;19.60;99.90;;;;;;5072133;28;20048;-69
2021/06/14 02:36:00;;;;;;;18.75;14.18;;;19.50;99.90;;;;;;5070694;28;20053;-69
2021/06/14 02:39:17;;;;;;;17.15;14.25;;;19.50;99.90;;;;;;5070162;28;20047;-69
2021/06/14 02:42:25;;;;;;;17.70;14.50;;;19.40;99.90;;;;;;5080718;28;20042;-69
2021/06/14 02:45:31;;;;;;;16.67;14.27;;;19.40;99.90;;;;;;5091808;28;20039;-69
2021/06/14 02:48:41;;;;;;;17.80;15.65;;;19.40;99.90;;;;;;5089953;28;20047;-69
2021/06/14 02:51:47;;;;;;;24.42;16.23;;;19.40;99.90;;;;;;5093750;28;20383;-69
2021/06/14 02:54:57;;;;;;;20.73;16.23;;;19.40;99.90;;;;;;5085083;28;20047;-69
2021/06/14 02:58:03;;;;;;;19.30;16.05;;;19.40;99.90;;;;;;5090945;28;20393;-70
2021/06/14 03:01:09;;;;;;;17.55;14.73;;;19.40;99.90;;;;;;5088177;28;20051;-69
2021/06/14 03:04:14;;;;;;;17.33;15.50;;;19.40;99.90;;;;;;5084510;28;20043;-69
2021/06/14 03:07:23;;;;;;;18.60;15.80;;;19.40;99.90;;;;;;5089815;28;20035;-69
2021/06/14 03:10:31;;;;;;;17.73;15.82;;;19.40;99.90;;;;;;5070240;28;20048;-69
2021/06/14 03:13:36;;;;;;;23.92;16.17;;;19.40;99.90;;;;;;5087382;28;20055;-69
2021/06/14 03:16:43;;;;;;;26.73;15.93;;;19.40;99.90;;;;;;5087409;28;20494;-69
2021/06/14 03:19:48;;;;;;;21.65;16.20;;;19.50;99.90;;;;;;5070573;28;20632;-69
2021/06/14 03:22:53;;;;;;;18.42;16.25;;;19.40;99.90;;;;;;5068084;28;20043;-69
2021/06/14 03:26:00;;;;;;;26.13;17.00;;;19.40;99.90;;;;;;5068403;28;20035;-69
2021/06/14 03:29:08;;;;;;;17.40;14.75;;;19.40;99.90;;;;;;5069570;28;20044;-69
2021/06/14 03:32:13;;;;;;;18.00;14.73;;;19.40;99.90;;;;;;5082075;28;20043;-69
2021/06/14 03:35:19;;;;;;;18.77;15.25;;;19.40;99.90;;;;;;5087280;28;20501;-69
2021/06/14 03:38:23;;;;;;;16.95;13.95;;;19.30;99.90;;;;;;5069922;28;20051;-69
2021/06/14 03:41:28;;;;;;;18.38;15.20;;;19.20;99.90;;;;;;5069761;28;20514;-69
2021/06/14 03:44:33;;;;;;;20.80;15.65;;;19.10;99.90;;;;;;5078875;28;20063;-70
2021/06/14 03:47:39;;;;;;;19.10;14.38;;;19.10;99.90;;;;;;5089789;28;20509;-69
2021/06/14 03:50:43;;;;;;;19.35;16.73;;;19.10;99.90;;;;;;5088870;28;20411;-70
2021/06/14 03:54:20;;;;;;;21.83;17.08;;;19.00;99.90;;;;;;5076257;28;20030;-69
2021/06/14 03:57:19;;;;;;;20.55;17.08;;;18.90;99.90;;;;;;5069914;28;20043;-69
2021/06/14 04:00:23;;;;;;;21.48;16.63;;;18.80;99.90;;;;;;5068585;28;20043;-69
2021/06/14 04:03:28;;;;;;;21.33;17.10;;;18.80;99.90;;;;;;5083604;28;20094;-69
2021/06/14 04:06:34;;;;;;;22.35;16.20;;;18.80;99.90;;;;;;5070342;28;20052;-69
2021/06/14 04:09:38;;;;;;;21.20;16.58;;;18.90;99.90;;;;;;5069438;28;20048;-70
2021/06/14 04:12:43;;;;;;;20.20;16.27;;;19.00;99.90;;;;;;5085047;28;20059;-70
2021/06/14 04:15:47;;;;;;;20.83;15.40;;;19.10;99.90;;;;;;5083977;28;20117;-70
2021/06/14 04:18:54;;;;;;;19.35;14.32;;;19.20;99.90;;;;;;5089489;28;20047;-69
2021/06/14 04:21:58;;;;;;;23.42;15.10;;;19.30;99.90;;;;;;5073577;28;20391;-69
2021/06/14 04:25:04;;;;;;;18.05;15.00;;;19.40;99.90;;;;;;5084480;28;20039;-69
2021/06/14 04:28:09;;;;;;;18.25;15.48;;;19.50;99.90;;;;;;5088175;28;20032;-69
2021/06/14 04:31:13;;;;;;;20.75;15.73;;;19.40;99.90;;;;;;5085222;28;20035;-69
2021/06/14 04:34:18;;;;;;;23.83;18.08;;;19.90;99.90;;;;;;5082835;28;20055;-69
2021/06/14 04:37:24;;;;;;;23.08;17.67;;;20.20;99.90;;;;;;5088482;28;20047;-69
2021/06/14 04:40:28;;;;;;;22.15;16.40;;;20.50;99.90;;;;;;5088805;28;20043;-69
2021/06/14 04:43:34;;;;;;;20.73;15.52;;;21.30;99.90;;;;;;5081437;28;20386;-69
2021/06/14 04:46:39;;;;;;;18.67;13.75;;;22.60;99.90;;;;;;5087142;28;20047;-69
2021/06/14 04:49:43;;;;;;;15.82;12.48;;;22.70;99.90;;;;;;5087078;28;20043;-69
2021/06/14 04:52:47;;;;;;;15.15;13.55;;;23.20;99.90;;;;;;5069900;28;20862;-69
2021/06/14 04:55:53;;;;;;;17.92;13.18;;;23.60;99.90;;;;;;5078746;28;20039;-69
2021/06/14 04:58:58;;;;;;;17.77;13.60;;;24.60;99.90;;;;;;5082819;28;20039;-69
2021/06/14 05:02:02;;;;;;;17.27;13.50;;;25.50;99.90;;;;;;5083871;28;20510;-69
2021/06/14 05:05:07;;;;;;;15.48;13.52;;;26.00;99.90;;;;;;5085173;28;20047;-69
2021/06/14 05:08:12;;;;;;;14.80;12.93;;;26.30;99.90;;;;;;5086501;28;20055;-69
2021/06/14 05:11:16;;;;;;;14.43;12.80;;;26.80;99.90;;;;;;5087453;28;20039;-70
2021/06/14 05:14:20;;;;;;;14.10;11.52;;;27.30;99.90;;;;;;5085504;28;20039;-69
2021/06/14 05:17:25;;;;;;;12.75;11.13;;;27.90;99.90;;;;;;5087222;28;20051;-69
2021/06/14 05:20:32;;;;;;;12.27;11.07;;;28.50;99.90;;;;;;5086560;28;20043;-69
2021/06/14 05:23:36;;;;;;;13.68;10.60;;;27.50;99.90;;;;;;5077422;28;20375;-70
2021/06/14 05:26:40;;;;;;;14.43;10.55;;;28.10;99.90;;;;;;5081326;28;20054;-70
2021/06/14 05:29:44;;;;;;;12.60;11.30;;;28.30;99.90;;;;;;5089563;28;20043;-69
2021/06/14 05:32:48;;;;;;;16.42;10.10;;;28.30;99.90;;;;;;5079040;28;20039;-70
2021/06/14 05:35:53;;;;;;;13.75;10.98;;;28.60;99.90;;;;;;5067705;28;20043;-70
2021/06/14 05:38:57;;;;;;;13.32;11.82;;;28.40;99.90;;;;;;5073987;28;20051;-69
2021/06/14 05:42:01;;;;;;;15.13;10.85;;;28.40;99.90;;;;;;5070927;28;20549;-70
2021/06/14 05:45:07;;;;;;;10.95;9.85;;;28.30;99.90;;;;;;5072565;28;20694;-70
2021/06/14 05:48:12;;;;;;;13.85;10.52;;;29.10;99.90;;;;;;5075223;28;20063;-70
2021/06/14 05:51:16;;;;;;;17.13;13.68;;;29.30;99.90;;;;;;5070619;28;20040;-70
2021/06/14 05:54:20;;;;;;;14.82;9.80;;;29.70;99.90;;;;;;5071516;28;20039;-70
2021/06/14 05:57:25;;;;;;;12.93;9.25;;;30.10;99.90;;;;;;5084549;28;20039;-70
2021/06/14 06:00:32;;;;;;;13.95;8.98;;;30.80;99.90;;;;;;5080366;28;20031;-70
2021/06/14 06:03:36;;;;;;;10.73;8.40;;;31.10;99.90;;;;;;5085453;28;20125;-70
2021/06/14 06:06:41;;;;;;;7.97;7.05;;;31.00;99.90;;;;;;5073013;28;20048;-70
2021/06/14 06:09:46;;;;;;;9.50;7.75;;;31.30;99.90;;;;;;5087045;28;20054;-70
2021/06/14 06:12:50;;;;;;;11.93;8.02;;;31.30;99.90;;;;;;5088185;28;20035;-70
2021/06/14 06:15:54;;;;;;;8.57;7.68;;;31.40;99.90;;;;;;5080835;28;20383;-70
2021/06/14 06:18:59;;;;;;;12.23;7.22;;;32.00;99.90;;;;;;5087747;28;20039;-70
2021/06/14 06:22:04;;;;;;;9.93;7.28;;;32.10;99.30;;;;;;5061372;28;20435;-70
2021/06/14 06:25:17;;;;;;;10.50;7.20;;;32.50;98.50;;;;;;5070343;28;20042;-70
2021/06/14 06:28:21;;;;;;;9.60;7.13;;;32.70;98.20;;;;;;5082190;28;20051;-70
2021/06/14 06:31:25;;;;;;;9.05;7.60;;;33.10;97.30;;;;;;5046724;28;20079;-71
2021/06/14 06:34:31;;;;;;;7.97;7.28;;;33.30;96.70;;;;;;5049567;28;20047;-71
2021/06/14 06:37:37;;;;;;;13.50;9.50;;;33.50;96.50;;;;;;5065224;28;20054;-70
2021/06/14 06:40:42;;;;;;;11.63;8.90;;;33.90;96.20;;;;;;5084090;28;20055;-71
2021/06/14 06:43:47;;;;;;;9.75;7.85;;;34.40;95.60;;;;;;5078849;28;20039;-71
2021/06/14 06:46:51;;;;;;;8.57;6.40;;;34.60;95.50;;;;;;5085185;28;20039;-71
2021/06/14 06:49:56;;;;;;;6.90;5.68;;;34.60;95.20;;;;;;5086353;28;20361;-70
2021/06/14 06:53:02;;;;;;;8.40;6.65;;;34.70;94.60;;;;;;5081348;28;20043;-71
2021/06/14 06:56:07;;;;;;;9.02;6.30;;;34.40;94.80;;;;;;5086329;28;20064;-71
2021/06/14 06:59:14;;;;;;;6.30;5.72;;;34.60;94.20;;;;;;5086039;28;20027;-71
2021/06/14 07:02:18;;;;;;;6.40;5.80;;;34.30;94.10;;;;;;5078046;28;20575;-71
2021/06/14 07:05:22;;;;;;;7.65;6.78;;;34.60;94.20;;;;;;5088279;28;20506;-70
2021/06/14 07:08:26;;;;;;;8.32;6.13;;;34.40;94.10;;;;;;5083559;28;20047;-70
2021/06/14 07:11:31;;;;;;;6.55;5.63;;;34.10;94.20;;;;;;5086478;28;20043;-70
2021/06/14 07:14:36;;;;;;;7.30;6.55;;;34.60;94.20;;;;;;5072403;28;20130;-70
2021/06/14 07:17:43;;;;;;;6.40;5.80;;;33.10;94.60;;;;;;5090666;28;20043;-70
2021/06/14 07:20:47;;;;;;;6.95;6.03;;;32.40;95.50;;;;;;5086735;28;20043;-70
2021/06/14 07:23:51;;;;;;;6.60;5.82;;;34.10;94.70;;;;;;5089139;28;20074;-71
2021/06/14 07:26:59;;;;;;;9.38;6.75;;;34.10;93.60;;;;;;5090498;28;20039;-69
2021/06/14 07:30:08;;;;;;;6.60;6.00;;;34.20;93.90;;;;;;5090082;28;20039;-70
2021/06/14 07:33:12;;;;;;;7.32;5.65;;;35.00;93.90;;;;;;5085752;28;20039;-70
2021/06/14 07:36:17;;;;;;;6.07;5.47;;;35.70;92.80;;;;;;5085714;28;20044;-68
2021/06/14 07:39:22;;;;;;;7.13;6.05;;;35.60;92.20;;;;;;5079890;28;20051;-70
2021/06/14 07:42:26;;;;;;;6.03;5.50;;;35.80;92.40;;;;;;5081027;28;20043;-71
2021/06/14 07:45:30;;;;;;;5.90;5.30;;;36.60;91.70;;;;;;5081640;28;20047;-70
2021/06/14 07:48:35;;;;;;;8.52;5.10;;;37.80;91.10;;;;;;5082668;28;20390;-68
2021/06/14 07:51:40;;;;;;;5.70;5.13;;;38.30;90.10;;;;;;5079287;28;20046;-70
2021/06/14 07:54:45;;;;;;;5.95;5.35;;;37.80;90.00;;;;;;5084730;28;20047;-71
2021/06/14 07:57:49;;;;;;;6.15;5.43;;;38.60;89.20;;;;;;5087826;28;20047;-68
2021/06/14 08:00:53;;;;;;;6.10;5.50;;;39.50;86.80;;;;;;5089079;28;20670;-67
2021/06/14 08:03:59;;;;;;;5.85;5.18;;;39.50;87.00;;;;;;5069127;28;20043;-69
2021/06/14 08:07:03;;;;;;;6.45;5.85;;;37.50;88.80;;;;;;5070884;28;20514;-70
2021/06/14 08:10:11;;;;;;;8.52;5.72;;;35.20;90.60;;;;;;5073078;28;20067;-69
2021/06/14 08:13:15;;;;;;;12.20;6.82;;;36.20;90.80;;;;;;5069852;28;20043;-69
2021/06/14 08:16:20;;;;;;;10.13;5.35;;;34.90;91.00;;;;;;5089212;28;20039;-70
2021/06/14 08:19:36;;;;;;;8.55;5.88;;;37.00;90.80;;;;;;5084540;28;20031;-69
2021/06/14 08:25:03;;;;;;;8.50;5.47;;;37.70;88.80;;;;;;5085936;28;20071;-69
2021/06/14 08:26:04;;;;;;;10.18;6.00;;;37.50;89.20;;;;;;5085416;28;20043;-70
2021/06/14 08:29:08;;;;;;;8.45;4.82;;;39.40;85.90;;;;;;5088502;28;20379;-68
2021/06/14 08:32:13;;;;;;;5.03;4.53;;;38.90;85.40;;;;;;5085780;28;20035;-69
2021/06/14 08:35:20;;;;;;;5.70;5.07;;;38.60;86.80;;;;;;5084393;28;20039;-69
2021/06/14 08:38:24;;;;;;;8.80;5.18;;;38.90;84.30;;;;;;5086901;28;20047;-69
2021/06/14 08:41:28;;;;;;;5.57;5.05;;;37.50;84.70;;;;;;5081070;28;20039;-69
2021/06/14 08:44:32;;;;;;;6.03;4.47;;;39.50;83.00;;;;;;5084269;28;20055;-69
2021/06/14 08:47:40;;;;;;;9.48;5.22;;;41.40;80.60;;;;;;5086230;28;20047;-70
2021/06/14 08:50:45;;;;;;;5.57;4.25;;;40.90;77.60;;;;;;5085207;28;20048;-70
2021/06/14 08:53:52;;;;;;;5.30;4.80;;;42.00;76.70;;;;;;5082873;28;20043;-71
2021/06/14 08:56:58;;;;;;;5.53;4.63;;;40.90;76.80;;;;;;5089380;28;20039;-70
2021/06/14 09:00:05;;;;;;;5.75;4.60;;;39.70;79.00;;;;;;5072939;28;20040;-70
2021/06/14 09:03:12;;;;;;;7.10;5.18;;;38.80;80.20;;;;;;5082520;28;20055;-70
2021/06/14 09:06:17;;;;;;;6.53;4.60;;;40.40;78.70;;;;;;5081227;28;20059;-70
2021/06/14 09:09:21;;;;;;;6.38;4.70;;;41.20;78.50;;;;;;5087685;28;20051;-71
2021/06/14 09:12:41;;;;;;;9.32;5.22;;;40.50;79.20;;;;;;5086754;28;20039;-69
2021/06/14 09:15:51;;;;;;;4.30;3.90;;;37.90;77.40;;;;;;5085206;28;20044;-70
2021/06/14 09:18:55;;;;;;;4.70;4.30;;;40.40;76.90;;;;;;5073170;28;20380;-70
2021/06/14 09:22:20;;;;;;;5.47;4.63;;;38.00;79.90;;;;;;5076889;28;20051;-69
2021/06/14 09:25:24;;;;;;;6.72;4.68;;;38.90;79.40;;;;;;5082831;28;20043;-68
2021/06/14 09:28:29;;;;;;;5.00;4.60;;;37.60;80.60;;;;;;5093118;28;20596;-70
2021/06/14 09:31:47;;;;;;;5.13;4.68;;;37.50;81.80;;;;;;5080898;28;20051;-71
2021/06/14 09:34:53;;;;;;;8.40;4.53;;;41.00;78.70;;;;;;5085709;28;20051;-71
2021/06/14 09:38:11;;;;;;;5.20;4.70;;;42.10;76.50;;;;;;5086685;28;20048;-72
2021/06/14 09:41:18;;;;;;;7.25;4.88;;;38.20;79.50;;;;;;5079147;28;20051;-71
2021/06/14 09:44:33;;;;;;;7.43;5.90;;;38.10;79.70;;;;;;5090234;28;20043;-71
2021/06/14 09:47:40;;;;;;;7.80;4.95;;;37.10;80.30;;;;;;5084299;28;20498;-71
2021/06/14 09:50:46;;;;;;;7.72;4.90;;;36.30;78.80;;;;;;5090163;28;20039;-69
2021/06/14 09:53:53;;;;;;;5.85;5.20;;;37.50;80.70;;;;;;5087459;28;20636;-69
2021/06/14 09:56:59;;;;;;;6.10;4.88;;;38.30;77.80;;;;;;5076923;28;20063;-70
2021/06/14 10:00:16;;;;;;;4.82;4.43;;;38.70;78.60;;;;;;5071938;28;20063;-70
2021/06/14 10:03:22;;;;;;;5.68;4.72;;;41.60;75.30;;;;;;5091777;28;20035;-70
2021/06/14 10:06:33;;;;;;;7.68;5.40;;;40.10;76.40;;;;;;5084083;28;20371;-69
2021/06/14 10:09:52;;;;;;;6.00;5.40;;;37.10;77.60;;;;;;5088601;28;20043;-70
2021/06/14 10:12:58;;;;;;;5.03;4.57;;;39.90;77.70;;;;;;5092437;28;20046;-69
2021/06/14 10:16:09;;;;;;;7.88;4.53;;;41.50;74.70;;;;;;5090483;28;20039;-70
2021/06/14 10:19:16;;;;;;;6.88;4.80;;;42.50;73.40;;;;;;5081696;28;20066;-70
2021/06/14 10:22:26;;;;;;;5.97;4.18;;;43.70;72.10;;;;;;5090377;28;20048;-70
2021/06/14 10:25:31;;;;;;;5.90;4.47;;;42.70;71.20;;;;;;5090153;28;20047;-71
2021/06/14 10:28:37;;;;;;;5.95;4.53;;;44.30;70.60;;;;;;5083359;28;20055;-69
2021/06/14 10:31:48;;;;;;;4.95;4.38;;;43.00;72.20;;;;;;5090883;28;20044;-71
2021/06/14 10:34:54;;;;;;;5.97;4.50;;;43.50;71.00;;;;;;5091061;28;20035;-71
2021/06/14 10:38:02;;;;;;;6.25;4.85;;;45.10;70.40;;;;;;5075141;28;20036;-71
2021/06/14 10:41:07;;;;;;;5.65;4.32;;;45.60;68.50;;;;;;5090504;28;20043;-71
2021/06/14 10:44:12;;;;;;;5.32;4.72;;;45.40;68.40;;;;;;5091022;28;20063;-69
2021/06/14 10:47:18;;;;;;;6.18;4.20;;;45.70;69.90;;;;;;5087519;28;20046;-70
2021/06/14 10:50:25;;;;;;;6.03;4.40;;;46.00;66.80;;;;;;5089711;28;20386;-71
2021/06/14 10:53:32;;;;;;;6.80;4.00;;;46.40;65.70;;;;;;5089963;28;20118;-71
2021/06/14 10:56:39;;;;;;;4.88;4.30;;;47.20;65.30;;;;;;5090199;28;20051;-71
2021/06/14 10:59:45;;;;;;;6.43;3.72;;;47.40;64.40;;;;;;5089655;28;20411;-71
2021/06/14 11:03:04;;;;;;;4.00;3.70;;;46.90;64.20;;;;;;5086326;28;20032;-70
2021/06/14 11:06:20;;;;;;;5.57;3.50;;;47.10;63.10;;;;;;5073115;28;20043;-71
2021/06/14 11:09:46;;;;;;;7.10;3.70;;;46.70;63.00;;;;;;5077710;28;20042;-72
2021/06/14 11:12:51;;;;;;;4.75;4.35;;;46.30;63.30;;;;;;5088091;28;20035;-71
2021/06/14 11:15:57;;;;;;;7.95;4.25;;;45.50;64.40;;;;;;5076884;28;20490;-70
2021/06/14 11:19:04;;;;;;;5.40;4.30;;;45.30;65.40;;;;;;5068463;28;20055;-70
2021/06/14 11:22:08;;;;;;;8.10;4.55;;;45.50;64.80;;;;;;5075079;28;20044;-71
2021/06/14 11:25:30;;;;;;;6.80;4.53;;;43.20;65.00;;;;;;5084220;28;20055;-70
2021/06/14 11:28:41;;;;;;;6.43;4.78;;;44.10;67.30;;;;;;5068805;28;20044;-70
2021/06/14 11:32:00;;;;;;;6.07;4.40;;;44.00;65.60;;;;;;5088058;28;20051;-71
2021/06/14 11:35:06;;;;;;;7.07;5.32;;;44.30;66.90;;;;;;5072418;28;20375;-71
2021/06/14 11:38:19;;;;;;;5.70;4.75;;;44.30;65.60;;;;;;5069674;28;20048;-71
2021/06/14 11:41:33;;;;;;;10.52;5.05;;;44.10;66.50;;;;;;5069206;28;20039;-72
2021/06/14 11:44:53;;;;;;;8.10;5.50;;;44.30;67.00;;;;;;5084621;28;20039;-70
2021/06/14 11:47:59;;;;;;;6.13;5.60;;;44.00;67.60;;;;;;5077079;28;20063;-68
2021/06/14 11:51:14;;;;;;;9.70;6.00;;;43.40;67.50;;;;;;5068790;28;20051;-71
2021/06/14 11:54:19;;;;;;;6.90;5.75;;;41.90;70.60;;;;;;5068520;28;20511;-69
2021/06/14 11:57:36;;;;;;;7.32;6.47;;;42.00;68.70;;;;;;5078941;28;20047;-70
2021/06/14 12:00:45;;;;;;;6.88;5.95;;;41.70;71.40;;;;;;5089390;28;20051;-70
2021/06/14 12:03:57;;;;;;;5.93;5.43;;;41.70;69.60;;;;;;5069895;28;20352;-67
2021/06/14 12:07:03;;;;;;;9.77;6.72;;;41.20;70.20;;;;;;5068885;28;20051;-67
2021/06/14 12:10:09;;;;;;;7.18;5.57;;;40.30;68.70;;;;;;5072830;28;20055;-69
2021/06/14 12:13:17;;;;;;;7.88;5.45;;;38.10;72.90;;;;;;5069797;28;20047;-69
2021/06/14 12:16:26;;;;;;;7.20;5.53;;;38.80;72.60;;;;;;5087458;28;20260;-69
2021/06/14 12:19:32;;;;;;;12.30;6.70;;;39.70;71.60;;;;;;5080943;28;20039;-69
2021/06/14 12:22:38;;;;;;;6.80;5.40;;;40.50;72.70;;;;;;5078939;28;20039;-68
2021/06/14 12:25:48;;;;;;;6.18;5.57;;;40.70;70.60;;;;;;5088633;28;20039;-67
2021/06/14 12:28:53;;;;;;;;;;;40.60;69.60;;;;;;5078066;28;20048;-69
2021/06/14 12:32:06;;;;;;;6.50;5.22;;;40.90;69.70;;;;;;5079774;28;20290;-69
2021/06/14 12:35:11;;;;;;;9.73;5.43;;;41.10;69.80;;;;;;5073004;28;20043;-68
2021/06/14 12:38:16;;;;;;;5.93;5.00;;;40.20;68.70;;;;;;5072449;28;20040;-68
2021/06/14 12:41:21;;;;;;;6.00;5.40;;;40.00;71.60;;;;;;5075350;28;20047;-69
2021/06/14 12:44:25;;;;;;;6.43;5.47;;;39.80;70.50;;;;;;5093595;28;20043;-68
2021/06/14 12:47:30;;;;;;;6.72;5.10;;;39.70;70.70;;;;;;5078158;28;20429;-70
2021/06/14 12:50:39;;;;;;;6.00;5.05;;;39.80;69.90;;;;;;5075238;28;20502;-68
2021/06/14 12:53:45;;;;;;;5.72;5.13;;;40.10;70.10;;;;;;5091602;28;20036;-69
2021/06/14 12:56:55;;;;;;;7.90;5.90;;;40.10;71.00;;;;;;5085922;28;20039;-70
2021/06/14 13:00:00;;;;;;;6.80;5.18;;;39.80;69.10;;;;;;5081820;28;20043;-68
2021/06/14 13:03:04;;;;;;;7.32;5.32;;;39.90;70.30;;;;;;5071666;28;20043;-69
2021/06/14 13:06:09;;;;;;;5.82;5.32;;;40.10;69.40;;;;;;5071583;28;20047;-68
2021/06/14 13:09:13;;;;;;;7.53;4.78;;;39.60;69.10;;;;;;5074700;28;20047;-69
2021/06/14 13:12:32;;;;;;;6.95;4.95;;;39.40;70.50;;;;;;5083672;28;20044;-68
2021/06/14 13:15:36;;;;;;;5.97;4.97;;;39.00;70.80;;;;;;5071172;28;20036;-68
2021/06/14 13:18:43;;;;;;;5.65;4.88;;;38.70;69.60;;;;;;5074900;28;20052;-69
2021/06/14 13:21:48;;;;;;;7.70;4.55;;;38.80;70.50;;;;;;5074139;28;20498;-68
2021/06/14 13:25:04;;;;;;;5.32;4.93;;;39.00;69.50;;;;;;5070448;28;20048;-68
2021/06/14 13:28:09;;;;;;;9.32;5.20;;;39.20;69.10;;;;;;5086122;28;20039;-69
2021/06/14 13:31:20;;;;;;;11.20;5.53;;;38.60;69.80;;;;;;5086871;28;20040;-67
2021/06/14 13:34:30;;;;;;;5.57;4.88;;;38.30;71.20;;;;;;5101426;28;20047;-68
2021/06/14 13:37:44;;;;;;;6.03;5.45;;;37.90;71.70;;;;;;5070677;28;20051;-69
2021/06/14 13:40:48;;;;;;;6.45;4.85;;;38.00;71.50;;;;;;5083273;28;20043;-68
2021/06/14 13:44:07;;;;;;;6.63;5.03;;;37.90;70.70;;;;;;5088826;28;20414;-68
2021/06/14 13:47:21;;;;;;;6.97;5.05;;;37.80;71.90;;;;;;5065508;28;185674;-69
2021/06/14 13:50:25;;;;;;;11.57;5.50;;;37.50;72.30;;;;;;5085168;28;20525;-68
2021/06/14 13:53:29;;;;;;;7.15;5.35;;;37.60;71.80;;;;;;5086474;28;20048;-68
2021/06/14 13:56:46;;;;;;;9.90;5.32;;;37.40;73.50;;;;;;5091937;28;20047;-68
2021/06/14 14:00:05;;;;;;;9.15;5.43;;;37.20;73.90;;;;;;5071371;28;20048;-68
2021/06/14 14:03:27;;;;;;;8.43;5.13;;;37.30;73.10;;;;;;5080590;28;20043;-68
2021/06/14 14:06:35;;;;;;;9.82;5.22;;;37.20;69.70;;;;;;5087793;28;20053;-69
2021/06/14 14:09:39;;;;;;;6.15;5.03;;;37.20;70.30;;;;;;5071278;28;20039;-68
2021/06/14 14:12:44;;;;;;;6.03;5.10;;;37.20;71.10;;;;;;5071180;28;20047;-67
2021/06/14 14:15:49;;;;;;;8.75;5.57;;;37.20;72.30;;;;;;5070669;28;20040;-68
2021/06/14 14:18:54;;;;;;;6.05;5.20;;;37.00;72.80;;;;;;5082180;28;20063;-68
2021/06/14 14:22:00;;;;;;;5.70;5.18;;;36.80;75.00;;;;;;5075711;28;20521;-68
2021/06/14 14:25:06;;;;;;;7.30;5.35;;;36.80;71.50;;;;;;5086372;28;20042;-68
2021/06/14 14:28:10;;;;;;;7.70;5.82;;;36.90;71.20;;;;;;5091277;28;20043;-68
2021/06/14 14:31:15;;;;;;;5.28;4.78;;;36.80;71.30;;;;;;5075568;28;20067;-68
2021/06/14 14:34:27;;;;;;;5.88;5.25;;;36.80;71.90;;;;;;5089505;28;20051;-68
2021/06/14 14:37:32;;;;;;;5.53;5.03;;;36.50;71.70;;;;;;5090505;28;20039;-69
2021/06/14 14:40:36;;;;;;;7.68;5.50;;;36.30;71.30;;;;;;5089451;28;20505;-69
2021/06/14 14:43:47;;;;;;;6.25;5.65;;;36.20;70.60;;;;;;5083685;28;20039;-70
2021/06/14 14:46:52;;;;;;;7.20;5.30;;;35.90;70.30;;;;;;5087064;28;20542;-70
2021/06/14 14:49:57;;;;;;;5.82;5.25;;;36.00;70.80;;;;;;5070169;28;20048;-69
2021/06/14 14:53:01;;;;;;;5.13;4.53;;;36.20;69.40;;;;;;5073869;28;20044;-69
2021/06/14 14:56:05;;;;;;;7.32;4.72;;;36.10;72.30;;;;;;5074359;28;20382;-68
2021/06/14 14:59:11;;;;;;;6.32;5.10;;;35.70;70.80;;;;;;5089698;28;20043;-68
2021/06/14 15:02:16;;;;;;;5.43;4.93;;;35.50;72.30;;;;;;5073883;28;20051;-69
2021/06/14 15:05:20;;;;;;;7.72;5.30;;;35.30;72.00;;;;;;5077066;28;20051;-68
2021/06/14 15:08:27;;;;;;;5.68;5.18;;;35.20;72.80;;;;;;5090576;28;20055;-69
2021/06/14 15:11:32;;;;;;;6.63;4.93;;;35.00;71.50;;;;;;5077665;28;20047;-70
2021/06/14 15:14:36;;;;;;;7.70;5.07;;;35.00;72.60;;;;;;5082526;28;20494;-69
2021/06/14 15:17:42;;;;;;;7.88;5.40;;;34.80;71.10;;;;;;5090626;28;20042;-68
2021/06/14 15:20:47;;;;;;;5.15;4.68;;;34.70;72.80;;;;;;5089795;28;20379;-69
2021/06/14 15:23:53;;;;;;;5.40;4.47;;;34.40;72.60;;;;;;5069402;28;20048;-69
2021/06/14 15:26:57;;;;;;;8.98;4.70;;;34.30;72.50;;;;;;5071141;28;20052;-69
2021/06/14 15:30:04;;;;;;;6.65;4.85;;;34.20;72.10;;;;;;5089998;28;20047;-69
2021/06/14 15:33:08;;;;;;;5.70;4.50;;;34.10;72.30;;;;;;5080573;28;20035;-68
2021/06/14 15:36:13;;;;;;;5.07;4.57;;;34.20;72.60;;;;;;5088817;28;20035;-68
2021/06/14 15:39:17;;;;;;;6.93;4.97;;;34.10;73.40;;;;;;5089438;28;20050;-70
2021/06/14 15:42:23;;;;;;;6.10;4.93;;;33.90;73.10;;;;;;5088799;28;20403;-69
2021/06/14 15:45:28;;;;;;;8.10;5.53;;;33.70;73.70;;;;;;5084586;28;20047;-69
2021/06/14 15:48:32;;;;;;;6.25;5.63;;;33.90;74.20;;;;;;5089736;28;20043;-69
2021/06/14 15:51:40;;;;;;;5.63;5.13;;;33.80;74.40;;;;;;5078747;28;20047;-69
2021/06/14 15:54:44;;;;;;;6.53;5.05;;;33.80;75.40;;;;;;5084047;28;21647;-68
2021/06/14 15:57:48;;;;;;;6.00;5.50;;;33.70;74.80;;;;;;5088143;28;20034;-69
2021/06/14 16:00:53;;;;;;;5.75;4.75;;;33.50;75.30;;;;;;5079303;28;20043;-68
2021/06/14 16:03:57;;;;;;;7.95;4.93;;;33.40;75.30;;;;;;5089226;28;20051;-69